Platzwetter & Webcam am Flugplatz Wels

Flugwetter Linz LOWL

[Quelle: ADDS]
METAR
LOWL 220420Z VRB02KT CAVOK 10/08 Q1017 NOSIG =
TAF
LOWL 212315Z 2200/2224 VRB02KT CAVOK TX27/2215Z TN13/2204Z PROB30 TEMPO 2203/2206 VRB01KT 3000 MIFG BR NSC BECMG 2211/2213 30008KT 9999 FEW045 SCT300 TEMPO 2214/2224 SCT050 FEW060CB =

Flugwetter Salzburg LOWS

[Quelle: ADDS]
METAR
LOWS 220420Z 15011KT 9999 FEW090 14/08 Q1017 NOSIG =
TAF
LOWS 212315Z 2200/2224 15007KT CAVOK TX27/2214Z TN11/2205Z BECMG 2208/2210 35007KT 9999 FEW070 SCT140 TEMPO 2214/2218 FEW060CB SCT070 BECMG 2216/2218 16006KT =

Webcam - letzten 24 Stunden

  • 0
  • 1
  • 2
  • 3
  • 4
  • 5
  • 6
  • 7
  • 8
  • 9
  • 10
  • 11
  • 12
  • 13
  • 14
  • 15
  • 16
  • 17
  • 18
  • 19
  • 20
  • 21
  • 22
  • 23

    Wind - Verlauf

    Windrichtung - Verlauf

    Temperatur - Verlauf

    Relative Luftfeuchtigkeit - Verlauf

    Luftdruck - Verlauf


    JU 52 Nostalgie-Rundflüge - hier am Flugplatz Wels!

    Tickets, Termine und Infos, hier am Flugplatz Wels. Tickethotline +43 7242 26499 0

    Pilot für einen Tag - Erfülle Dir den Traum vom Fliegen!

    Werde einen Tag lang Pilot bei und mit dem Fliegerclub Weiße Möwe in Wels!

    Stadt - Wels

    Ausflugsziele & Sehenswürdigkeiten
    in Wels und Umgebung

    Cookies erleichtern die Bereitstellung unserer Dienste. Mit der Nutzung unserer Dienste erklären Sie sich damit einverstanden, dass wir Cookies verwenden.
    Weitere Informationen